AKDT,Max TemperatureF,Mean TemperatureF,Min TemperatureF,Max Dew PointF,MeanDew PointF,Min DewpointF,Max Humidity, Mean Humidity, Min Humidity, Max Sea Level PressureIn, Mean Sea Level PressureIn, Min Sea Level PressureIn, Max VisibilityMiles, Mean VisibilityMiles, Min VisibilityMiles, Max Wind SpeedMPH, Mean Wind SpeedMPH, Max Gust SpeedMPH,PrecipitationIn, CloudCover, Events, WindDirDegrees
2011-10-1,51,46,41,43,39,37,93,80,58,30.07,30.00,29.89,10,10,10,10,7,,0.00,2,,114
2011-10-2,53,45,37,39,37,36,93,76,51,30.00,29.96,29.88,10,10,10,13,6,,0.00,2,,147
2011-10-3,48,42,37,41,36,34,93,77,62,29.79,29.57,29.28,10,10,10,10,5,,0.00,3,,121
2011-10-4,55,50,44,43,41,37,87,70,54,29.54,29.40,29.20,10,10,7,21,10,30,0.00,7,,135
2011-10-5,50,42,35,41,38,34,93,85,66,29.80,29.69,29.57,10,6,0,8,4,,0.00,3,,135
2011-10-6,48,44,39,45,41,37,93,87,71,29.91,29.87,29.83,10,10,10,13,6,16,0.00,7,,120
2011-10-7,48,46,44,45,43,41,93,87,76,30.12,30.06,29.95,10,10,5,14,6,20,0.00,8,,110
2011-10-8,50,47,44,43,41,37,93,81,62,30.04,29.67,29.32,10,10,7,14,9,21,0.00,8,,103
2011-10-9,48,45,42,45,42,39,93,87,81,29.79,29.69,29.42,10,8,4,12,6,,0.00,7,,113
2011-10-10,55,48,42,43,39,36,87,76,51,29.67,29.43,29.24,10,10,10,12,7,,0.00,6,,123
2011-10-11,51,48,44,45,42,39,93,82,71,29.42,29.32,29.25,10,10,10,10,5,,0.00,8,,111
2011-10-12,50,49,48,46,44,43,93,84,76,29.97,29.75,29.54,10,10,7,18,11,25,0.00,8,,109
2011-10-13,48,44,41,43,40,36,93,82,71,30.15,30.12,30.07,10,10,7,15,7,18,0.00,8,Rain,129
2011-10-14,44,42,39,37,37,36,93,84,71,30.17,30.15,30.11,10,10,4,10,6,,0.00,7,,111
2011-10-15,44,43,42,37,37,36,81,76,71,30.12,30.08,30.02,10,10,10,17,11,23,0.00,8,,120
2011-10-16,48,45,42,43,39,36,93,79,71,29.99,29.97,29.93,10,9,5,16,11,23,0.00,8,,104
2011-10-17,53,48,44,46,43,41,93,87,77,29.98,29.94,29.90,10,10,7,21,11,28,0.00,8,,102
2011-10-18,53,50,48,48,45,39,93,79,58,29.95,29.88,29.79,10,10,7,21,10,29,0.00,8,,149
2011-10-19,46,44,41,43,40,37,93,85,76,29.96,29.88,29.84,10,9,5,13,3,16,0.00,8,,159
2011-10-20,48,44,41,39,37,36,87,78,66,30.05,30.03,29.98,10,10,8,14,8,17,0.00,6,,118
2011-10-21,44,42,39,39,36,32,87,79,61,29.84,29.61,29.49,10,9,7,15,7,20,0.00,7,,100
2011-10-22,46,44,42,41,38,36,87,77,71,29.74,29.68,29.59,10,10,8,18,12,26,0.00,8,,121
2011-10-23,46,44,42,39,38,37,87,81,76,29.91,29.86,29.82,10,10,7,16,7,23,0.00,8,,119
2011-10-24,46,44,42,43,40,37,93,84,76,30.29,30.12,29.96,10,9,6,13,6,17,0.00,8,,114
2011-10-25,46,44,42,41,39,37,87,78,71,30.34,30.17,29.79,10,10,7,23,12,36,0.00,8,,118
2011-10-26,44,40,37,37,36,34,87,81,76,29.92,29.73,29.55,10,10,6,24,11,31,0.00,8,,136
2011-10-27,44,43,42,39,37,36,87,80,71,30.07,29.98,29.65,10,10,7,21,9,26,0.00,8,,102
2011-10-28,46,44,42,39,37,34,87,78,62,29.58,29.20,28.99,10,7,4,32,18,46,0.00,8,,129
2011-10-29,46,44,41,43,38,36,87,81,76,29.73,29.59,29.41,10,8,4,28,12,44,0.00,8,,127
2011-10-30,46,42,39,39,38,36,93,80,71,29.75,29.61,29.52,10,9,3,20,8,26,0.00,8,,148
2011-10-31,46,44,42,39,35,30,81,71,57,30.30,30.17,29.95,10,10,10,13,6,24,0.00,7,,174